sensor_id;sensor_type;location;lat;lon;timestamp;pressure;altitude;pressure_sealevel;temperature;humidity
70407;BME280;57821;52.202;0.154;2023-05-22T00:01:22;102077.00;;;14.05;66.36
70407;BME280;57821;52.202;0.154;2023-05-22T00:03:48;102082.19;;;14.04;66.20
70407;BME280;57821;52.202;0.154;2023-05-22T00:06:15;102083.06;;;14.04;66.23
70407;BME280;57821;52.202;0.154;2023-05-22T00:08:42;102077.88;;;14.03;66.29
70407;BME280;57821;52.202;0.154;2023-05-22T00:11:08;102076.13;;;14.03;65.81
70407;BME280;57821;52.202;0.154;2023-05-22T00:13:35;102075.25;;;13.99;66.13
70407;BME280;57821;52.202;0.154;2023-05-22T00:16:01;102070.00;;;13.98;66.36
70407;BME280;57821;52.202;0.154;2023-05-22T00:18:28;102083.91;;;13.98;65.87
70407;BME280;57821;52.202;0.154;2023-05-22T00:20:54;102075.25;;;13.96;66.06
70407;BME280;57821;52.202;0.154;2023-05-22T00:23:21;102070.03;;;13.96;66.72
70407;BME280;57821;52.202;0.154;2023-05-22T00:25:48;102063.94;;;13.94;66.89
70407;BME280;57821;52.202;0.154;2023-05-22T00:28:14;102055.22;;;13.92;66.94
70407;BME280;57821;52.202;0.154;2023-05-22T00:30:41;102068.25;;;13.89;66.77
70407;BME280;57821;52.202;0.154;2023-05-22T00:33:07;102060.44;;;13.89;66.28
70407;BME280;57821;52.202;0.154;2023-05-22T00:35:34;102057.81;;;13.85;66.42
70407;BME280;57821;52.202;0.154;2023-05-22T00:38:02;102056.91;;;13.81;67.09
70407;BME280;57821;52.202;0.154;2023-05-22T00:40:29;102056.91;;;13.81;66.62
70407;BME280;57821;52.202;0.154;2023-05-22T00:42:55;102062.16;;;13.80;67.09
70407;BME280;57821;52.202;0.154;2023-05-22T00:45:22;102054.31;;;13.77;66.99
70407;BME280;57821;52.202;0.154;2023-05-22T00:47:49;102058.66;;;13.76;67.62
70407;BME280;57821;52.202;0.154;2023-05-22T00:50:16;102049.09;;;13.72;66.94
70407;BME280;57821;52.202;0.154;2023-05-22T00:52:45;102048.22;;;13.72;67.05
70407;BME280;57821;52.202;0.154;2023-05-22T00:55:13;102051.66;;;13.69;67.22
70407;BME280;57821;52.202;0.154;2023-05-22T00:57:40;102049.94;;;13.68;67.93
70407;BME280;57821;52.202;0.154;2023-05-22T01:00:08;102052.53;;;13.67;67.98
70407;BME280;57821;52.202;0.154;2023-05-22T01:02:36;102048.19;;;13.67;67.90
70407;BME280;57821;52.202;0.154;2023-05-22T01:05:04;102053.38;;;13.64;67.49
70407;BME280;57821;52.202;0.154;2023-05-22T01:07:32;102046.41;;;13.60;67.49
70407;BME280;57821;52.202;0.154;2023-05-22T01:09:59;102046.38;;;13.57;67.64
70407;BME280;57821;52.202;0.154;2023-05-22T01:12:32;102047.25;;;13.50;67.57
70407;BME280;57821;52.202;0.154;2023-05-22T01:17:46;102051.53;;;13.39;67.80
70407;BME280;57821;52.202;0.154;2023-05-22T01:31:05;102042.63;;;13.03;68.20
70407;BME280;57821;52.202;0.154;2023-05-22T01:33:39;102039.06;;;12.92;68.42
70407;BME280;57821;52.202;0.154;2023-05-22T01:36:08;102039.03;;;12.86;68.69
70407;BME280;57821;52.202;0.154;2023-05-22T01:38:39;102032.03;;;12.79;68.58
70407;BME280;57821;52.202;0.154;2023-05-22T01:41:06;102031.13;;;12.75;68.97
70407;BME280;57821;52.202;0.154;2023-05-22T01:43:35;102033.69;;;12.69;69.09
70407;BME280;57821;52.202;0.154;2023-05-22T01:46:02;102025.84;;;12.65;68.85
70407;BME280;57821;52.202;0.154;2023-05-22T01:48:28;102021.47;;;12.61;69.29
70407;BME280;57821;52.202;0.154;2023-05-22T01:50:58;102012.72;;;12.50;69.51
70407;BME280;57821;52.202;0.154;2023-05-22T01:53:56;102022.25;;;12.52;70.43
70407;BME280;57821;52.202;0.154;2023-05-22T01:56:31;102015.22;;;12.41;69.58
70407;BME280;57821;52.202;0.154;2023-05-22T01:59:13;102028.22;;;12.41;70.55
70407;BME280;57821;52.202;0.154;2023-05-22T02:01:43;102023.00;;;12.38;70.08
70407;BME280;57821;52.202;0.154;2023-05-22T02:04:12;102003.81;;;12.25;70.78
70407;BME280;57821;52.202;0.154;2023-05-22T02:06:41;102015.97;;;12.27;70.84
70407;BME280;57821;52.202;0.154;2023-05-22T02:09:09;102013.31;;;12.21;70.92
70407;BME280;57821;52.202;0.154;2023-05-22T02:11:38;102009.81;;;12.19;71.16
70407;BME280;57821;52.202;0.154;2023-05-22T02:14:05;102004.59;;;12.15;71.55
70407;BME280;57821;52.202;0.154;2023-05-22T02:16:32;102002.84;;;12.14;71.21
70407;BME280;57821;52.202;0.154;2023-05-22T02:19:00;102004.56;;;12.13;71.75
70407;BME280;57821;52.202;0.154;2023-05-22T02:21:26;102001.09;;;12.11;71.75
70407;BME280;57821;52.202;0.154;2023-05-22T02:23:53;101994.16;;;12.12;71.97
70407;BME280;57821;52.202;0.154;2023-05-22T02:26:19;101995.91;;;12.11;71.76
70407;BME280;57821;52.202;0.154;2023-05-22T02:28:48;101995.03;;;12.12;72.47
70407;BME280;57821;52.202;0.154;2023-05-22T02:31:15;101990.72;;;12.14;72.08
70407;BME280;57821;52.202;0.154;2023-05-22T02:33:42;101994.19;;;12.15;72.50
70407;BME280;57821;52.202;0.154;2023-05-22T02:36:09;101994.19;;;12.15;72.50
70407;BME280;57821;52.202;0.154;2023-05-22T02:38:35;101991.63;;;12.16;73.01
70407;BME280;57821;52.202;0.154;2023-05-22T02:41:02;101992.47;;;12.15;72.79
70407;BME280;57821;52.202;0.154;2023-05-22T02:43:28;101994.22;;;12.16;73.18
70407;BME280;57821;52.202;0.154;2023-05-22T02:45:55;101991.63;;;12.16;73.67
70407;BME280;57821;52.202;0.154;2023-05-22T02:48:22;101991.63;;;12.16;73.01
70407;BME280;57821;52.202;0.154;2023-05-22T02:50:48;101989.88;;;12.18;73.43
70407;BME280;57821;52.202;0.154;2023-05-22T02:53:15;101993.38;;;12.20;73.09
70407;BME280;57821;52.202;0.154;2023-05-22T02:55:42;101990.78;;;12.23;73.35
70407;BME280;57821;52.202;0.154;2023-05-22T02:58:10;101999.50;;;12.27;73.01
70407;BME280;57821;52.202;0.154;2023-05-22T03:00:39;101992.56;;;12.29;73.64
70407;BME280;57821;52.202;0.154;2023-05-22T03:03:07;101998.66;;;12.31;73.59
70407;BME280;57821;52.202;0.154;2023-05-22T03:05:33;101985.69;;;12.32;73.93
70407;BME280;57821;52.202;0.154;2023-05-22T03:08:00;101985.72;;;12.34;73.60
70407;BME280;57821;52.202;0.154;2023-05-22T03:10:26;101985.72;;;12.37;73.65
70407;BME280;57821;52.202;0.154;2023-05-22T03:12:53;101970.97;;;12.34;74.00
70407;BME280;57821;52.202;0.154;2023-05-22T03:15:20;101972.72;;;12.39;73.39
70407;BME280;57821;52.202;0.154;2023-05-22T03:17:48;101972.72;;;12.39;73.76
70407;BME280;57821;52.202;0.154;2023-05-22T03:20:15;101972.75;;;12.42;73.48
70407;BME280;57821;52.202;0.154;2023-05-22T03:22:43;101967.53;;;12.42;74.25
70407;BME280;57821;52.202;0.154;2023-05-22T03:25:10;101965.78;;;12.41;73.78
70407;BME280;57821;52.202;0.154;2023-05-22T03:27:38;101971.00;;;12.38;74.06
70407;BME280;57821;52.202;0.154;2023-05-22T03:30:06;101971.00;;;12.41;73.84
70407;BME280;57821;52.202;0.154;2023-05-22T03:32:35;101964.94;;;12.39;74.53
70407;BME280;57821;52.202;0.154;2023-05-22T03:35:03;101969.28;;;12.40;74.33
70407;BME280;57821;52.202;0.154;2023-05-22T03:37:30;101961.47;;;12.38;74.58
70407;BME280;57821;52.202;0.154;2023-05-22T03:39:57;101956.22;;;12.35;74.51
70407;BME280;57821;52.202;0.154;2023-05-22T03:42:27;101965.72;;;12.31;74.64
70407;BME280;57821;52.202;0.154;2023-05-22T03:44:55;101965.72;;;12.31;75.49
70407;BME280;57821;52.202;0.154;2023-05-22T03:47:22;101970.06;;;12.31;74.73
70407;BME280;57821;52.202;0.154;2023-05-22T03:49:49;101977.88;;;12.32;75.02
70407;BME280;57821;52.202;0.154;2023-05-22T03:52:16;101966.59;;;12.32;75.36
70407;BME280;57821;52.202;0.154;2023-05-22T03:54:42;101971.84;;;12.33;75.36
70407;BME280;57821;52.202;0.154;2023-05-22T03:57:09;101965.75;;;12.33;75.26
70407;BME280;57821;52.202;0.154;2023-05-22T03:59:36;101970.97;;;12.34;76.05
70407;BME280;57821;52.202;0.154;2023-05-22T04:02:02;101965.75;;;12.36;76.00
70407;BME280;57821;52.202;0.154;2023-05-22T04:04:29;101971.84;;;12.38;75.35
70407;BME280;57821;52.202;0.154;2023-05-22T04:06:56;101971.00;;;12.39;75.85
70407;BME280;57821;52.202;0.154;2023-05-22T04:09:25;101954.50;;;12.34;76.44
70407;BME280;57821;52.202;0.154;2023-05-22T04:11:51;101967.53;;;12.42;76.31
70407;BME280;57821;52.202;0.154;2023-05-22T04:14:18;101964.97;;;12.43;75.91
70407;BME280;57821;52.202;0.154;2023-05-22T04:16:44;101969.34;;;12.46;76.51
70407;BME280;57821;52.202;0.154;2023-05-22T04:19:13;101969.34;;;12.49;76.35
70407;BME280;57821;52.202;0.154;2023-05-22T04:21:40;101970.22;;;12.51;75.83
70407;BME280;57821;52.202;0.154;2023-05-22T04:24:06;101964.19;;;12.52;75.75
70407;BME280;57821;52.202;0.154;2023-05-22T04:26:33;101966.75;;;12.53;76.50
70407;BME280;57821;52.202;0.154;2023-05-22T04:29:00;101968.50;;;12.54;75.99
70407;BME280;57821;52.202;0.154;2023-05-22T04:31:27;101973.72;;;12.54;76.65
70407;BME280;57821;52.202;0.154;2023-05-22T04:33:54;101975.47;;;12.55;76.20
70407;BME280;57821;52.202;0.154;2023-05-22T04:36:21;101968.53;;;12.59;76.00
70407;BME280;57821;52.202;0.154;2023-05-22T04:38:49;101971.19;;;12.62;76.56
70407;BME280;57821;52.202;0.154;2023-05-22T04:41:15;101978.13;;;12.66;76.69
70407;BME280;57821;52.202;0.154;2023-05-22T04:43:42;101977.31;;;12.71;76.25
70407;BME280;57821;52.202;0.154;2023-05-22T04:46:09;101980.81;;;12.76;76.58
70407;BME280;57821;52.202;0.154;2023-05-22T04:48:36;101969.53;;;12.76;76.18
70407;BME280;57821;52.202;0.154;2023-05-22T04:51:03;101971.28;;;12.82;76.50
70407;BME280;57821;52.202;0.154;2023-05-22T04:53:30;101978.25;;;12.84;76.29
70407;BME280;57821;52.202;0.154;2023-05-22T04:55:56;101974.81;;;12.85;76.14
70407;BME280;57821;52.202;0.154;2023-05-22T04:58:23;101972.22;;;12.88;75.52
70407;BME280;57821;52.202;0.154;2023-05-22T05:00:50;101967.03;;;12.90;75.37
70407;BME280;57821;52.202;0.154;2023-05-22T05:03:16;101974.88;;;12.93;75.85
70407;BME280;57821;52.202;0.154;2023-05-22T05:05:43;101978.31;;;12.93;75.60
70407;BME280;57821;52.202;0.154;2023-05-22T05:08:10;101975.69;;;12.90;75.21
70407;BME280;57821;52.202;0.154;2023-05-22T05:10:37;101973.97;;;12.91;75.87
70407;BME280;57821;52.202;0.154;2023-05-22T05:13:04;101981.81;;;12.92;75.80
70407;BME280;57821;52.202;0.154;2023-05-22T05:15:36;101980.06;;;12.94;75.87
70407;BME280;57821;52.202;0.154;2023-05-22T05:18:02;101988.75;;;12.96;75.45
70407;BME280;57821;52.202;0.154;2023-05-22T05:20:29;101985.28;;;12.97;75.57
70407;BME280;57821;52.202;0.154;2023-05-22T05:22:56;101986.16;;;12.99;75.70
70407;BME280;57821;52.202;0.154;2023-05-22T05:25:22;101983.59;;;13.02;74.94
70407;BME280;57821;52.202;0.154;2023-05-22T05:27:49;101981.00;;;13.04;75.31
70407;BME280;57821;52.202;0.154;2023-05-22T05:30:16;101990.53;;;13.06;75.36
70407;BME280;57821;52.202;0.154;2023-05-22T05:33:18;101989.69;;;13.10;75.17
70407;BME280;57821;52.202;0.154;2023-05-22T05:36:05;101987.16;;;13.13;75.32
70407;BME280;57821;52.202;0.154;2023-05-22T05:38:33;101983.72;;;13.16;75.32
70407;BME280;57821;52.202;0.154;2023-05-22T05:40:59;101981.97;;;13.20;74.99
70407;BME280;57821;52.202;0.154;2023-05-22T05:43:26;101978.50;;;13.24;74.82
70407;BME280;57821;52.202;0.154;2023-05-22T05:45:57;101979.41;;;13.27;74.29
70407;BME280;57821;52.202;0.154;2023-05-22T05:48:24;101983.78;;;13.36;74.00
70407;BME280;57821;52.202;0.154;2023-05-22T05:50:50;101981.19;;;13.40;74.33
70407;BME280;57821;52.202;0.154;2023-05-22T05:53:18;101984.69;;;13.44;74.12
70407;BME280;57821;52.202;0.154;2023-05-22T05:55:50;101983.84;;;13.45;73.99
70407;BME280;57821;52.202;0.154;2023-05-22T05:58:18;101983.84;;;13.45;74.06
70407;BME280;57821;52.202;0.154;2023-05-22T06:00:56;101982.97;;;13.49;73.19
70407;BME280;57821;52.202;0.154;2023-05-22T06:03:23;101983.88;;;13.51;72.96
70407;BME280;57821;52.202;0.154;2023-05-22T06:05:58;101989.94;;;13.54;73.39
70407;BME280;57821;52.202;0.154;2023-05-22T06:08:44;101984.75;;;13.62;73.24
70407;BME280;57821;52.202;0.154;2023-05-22T06:11:11;101988.25;;;13.67;73.82
70407;BME280;57821;52.202;0.154;2023-05-22T06:13:49;101993.47;;;13.72;73.14
70407;BME280;57821;52.202;0.154;2023-05-22T06:16:15;101987.41;;;13.74;72.36
70407;BME280;57821;52.202;0.154;2023-05-22T06:18:42;101990.00;;;13.77;72.42
70407;BME280;57821;52.202;0.154;2023-05-22T06:21:08;101985.69;;;13.79;72.26
70407;BME280;57821;52.202;0.154;2023-05-22T06:23:35;102004.78;;;13.81;72.34
70407;BME280;57821;52.202;0.154;2023-05-22T06:26:02;101994.34;;;13.81;71.94
70407;BME280;57821;52.202;0.154;2023-05-22T06:28:29;102003.06;;;13.83;71.44
70407;BME280;57821;52.202;0.154;2023-05-22T06:30:57;101997.00;;;13.84;71.72
70407;BME280;57821;52.202;0.154;2023-05-22T06:33:29;101990.91;;;13.84;71.47
70407;BME280;57821;52.202;0.154;2023-05-22T06:35:56;102006.53;;;13.88;72.13
70407;BME280;57821;52.202;0.154;2023-05-22T06:38:22;102005.69;;;13.91;71.88
70407;BME280;57821;52.202;0.154;2023-05-22T06:40:49;102015.22;;;13.92;71.37
70407;BME280;57821;52.202;0.154;2023-05-22T06:43:22;102017.00;;;13.94;71.40
70407;BME280;57821;52.202;0.154;2023-05-22T06:45:53;102023.94;;;13.98;71.63
70407;BME280;57821;52.202;0.154;2023-05-22T06:48:38;102032.66;;;14.02;70.76
70407;BME280;57821;52.202;0.154;2023-05-22T06:51:13;102023.09;;;14.01;70.74
70407;BME280;57821;52.202;0.154;2023-05-22T06:53:40;102029.19;;;14.02;71.02
70407;BME280;57821;52.202;0.154;2023-05-22T06:56:12;102037.88;;;14.04;70.36
70407;BME280;57821;52.202;0.154;2023-05-22T06:58:48;102047.47;;;14.08;70.84
70407;BME280;57821;52.202;0.154;2023-05-22T07:01:14;102046.59;;;14.09;70.50
70407;BME280;57821;52.202;0.154;2023-05-22T07:03:49;102042.22;;;14.06;70.09
70407;BME280;57821;52.202;0.154;2023-05-22T07:06:36;102036.16;;;14.09;69.79
70407;BME280;57821;52.202;0.154;2023-05-22T07:09:04;102042.25;;;14.08;69.09
70407;BME280;57821;52.202;0.154;2023-05-22T07:11:32;102048.31;;;14.07;69.31
70407;BME280;57821;52.202;0.154;2023-05-22T07:14:00;102037.88;;;14.02;68.87
70407;BME280;57821;52.202;0.154;2023-05-22T07:16:26;102052.66;;;14.08;68.59
70407;BME280;57821;52.202;0.154;2023-05-22T07:18:54;102057.88;;;14.08;68.93
70407;BME280;57821;52.202;0.154;2023-05-22T07:21:21;102057.88;;;14.08;68.97
70407;BME280;57821;52.202;0.154;2023-05-22T07:23:47;102057.88;;;14.06;68.96
70407;BME280;57821;52.202;0.154;2023-05-22T07:26:14;102065.72;;;14.11;69.09
70407;BME280;57821;52.202;0.154;2023-05-22T07:28:47;102074.38;;;14.10;68.48
70407;BME280;57821;52.202;0.154;2023-05-22T07:31:14;102074.38;;;14.10;68.48
70407;BME280;57821;52.202;0.154;2023-05-22T07:33:43;102071.78;;;14.10;68.79
70407;BME280;57821;52.202;0.154;2023-05-22T07:36:10;102080.50;;;14.09;68.72
70407;BME280;57821;52.202;0.154;2023-05-22T07:38:39;102079.63;;;14.08;68.34
70407;BME280;57821;52.202;0.154;2023-05-22T07:41:06;102081.34;;;14.08;68.45
70407;BME280;57821;52.202;0.154;2023-05-22T07:43:33;102085.69;;;14.07;68.46
70407;BME280;57821;52.202;0.154;2023-05-22T07:46:00;102087.44;;;14.02;68.85
70407;BME280;57821;52.202;0.154;2023-05-22T07:48:34;102083.06;;;13.96;68.51
70407;BME280;57821;52.202;0.154;2023-05-22T07:51:00;102088.28;;;14.01;68.73
70407;BME280;57821;52.202;0.154;2023-05-22T07:53:27;102088.31;;;14.03;69.12
70407;BME280;57821;52.202;0.154;2023-05-22T07:55:56;102095.22;;;14.04;68.78
70407;BME280;57821;52.202;0.154;2023-05-22T07:58:23;102095.25;;;14.05;69.08
70407;BME280;57821;52.202;0.154;2023-05-22T08:00:50;102096.13;;;14.06;69.02
70407;BME280;57821;52.202;0.154;2023-05-22T08:03:17;102100.47;;;14.07;69.15
70407;BME280;57821;52.202;0.154;2023-05-22T08:05:45;102103.09;;;14.07;68.93
70407;BME280;57821;52.202;0.154;2023-05-22T08:08:12;102097.84;;;14.04;69.28
70407;BME280;57821;52.202;0.154;2023-05-22T08:10:39;102104.84;;;14.08;69.00
70407;BME280;57821;52.202;0.154;2023-05-22T08:13:10;102101.34;;;14.07;69.41
70407;BME280;57821;52.202;0.154;2023-05-22T08:15:36;102096.97;;;14.05;69.30
70407;BME280;57821;52.202;0.154;2023-05-22T08:18:03;102110.91;;;14.10;69.20
70407;BME280;57821;52.202;0.154;2023-05-22T08:20:30;102110.94;;;14.13;69.47
70407;BME280;57821;52.202;0.154;2023-05-22T08:22:56;102112.66;;;14.17;68.94
70407;BME280;57821;52.202;0.154;2023-05-22T08:25:23;102112.69;;;14.20;69.21
70407;BME280;57821;52.202;0.154;2023-05-22T08:27:49;102112.72;;;14.24;68.66
70407;BME280;57821;52.202;0.154;2023-05-22T08:30:16;102115.31;;;14.29;69.01
70407;BME280;57821;52.202;0.154;2023-05-22T08:32:43;102105.78;;;14.32;68.88
70407;BME280;57821;52.202;0.154;2023-05-22T08:35:09;102115.41;;;14.38;68.34
70407;BME280;57821;52.202;0.154;2023-05-22T08:37:36;102111.91;;;14.45;68.33
70407;BME280;57821;52.202;0.154;2023-05-22T08:40:03;102109.31;;;14.51;67.99
70407;BME280;57821;52.202;0.154;2023-05-22T08:42:30;102120.63;;;14.58;68.02
70407;BME280;57821;52.202;0.154;2023-05-22T08:44:56;102122.38;;;14.59;67.48
70407;BME280;57821;52.202;0.154;2023-05-22T08:47:24;102116.28;;;14.64;67.39
70407;BME280;57821;52.202;0.154;2023-05-22T08:49:52;102103.25;;;14.61;67.48
70407;BME280;57821;52.202;0.154;2023-05-22T08:52:26;102125.00;;;14.72;66.86
70407;BME280;57821;52.202;0.154;2023-05-22T08:54:55;102111.06;;;14.75;67.05
70407;BME280;57821;52.202;0.154;2023-05-22T08:57:23;102112.84;;;14.79;67.53
70407;BME280;57821;52.202;0.154;2023-05-22T08:59:50;102112.84;;;14.84;66.94
70407;BME280;57821;52.202;0.154;2023-05-22T09:02:17;102113.69;;;14.83;66.79
70407;BME280;57821;52.202;0.154;2023-05-22T09:04:43;102116.31;;;14.83;66.44
70407;BME280;57821;52.202;0.154;2023-05-22T09:07:10;102119.78;;;14.82;67.36
70407;BME280;57821;52.202;0.154;2023-05-22T09:09:40;102118.94;;;14.84;66.58
70407;BME280;57821;52.202;0.154;2023-05-22T09:12:08;102125.03;;;14.91;66.93
70407;BME280;57821;52.202;0.154;2023-05-22T09:14:39;102125.00;;;14.97;66.91
70407;BME280;57821;52.202;0.154;2023-05-22T09:17:07;102109.31;;;14.97;66.63
70407;BME280;57821;52.202;0.154;2023-05-22T09:19:34;102119.78;;;15.12;66.54
70407;BME280;57821;52.202;0.154;2023-05-22T09:22:02;102126.75;;;15.19;66.53
70407;BME280;57821;52.202;0.154;2023-05-22T09:24:30;102124.13;;;15.25;66.00
70407;BME280;57821;52.202;0.154;2023-05-22T09:27:01;102131.97;;;15.31;66.05
70407;BME280;57821;52.202;0.154;2023-05-22T09:29:28;102130.19;;;15.39;65.56
70407;BME280;57821;52.202;0.154;2023-05-22T09:31:54;102134.53;;;15.48;65.24
70407;BME280;57821;52.202;0.154;2023-05-22T09:34:27;102131.03;;;15.61;65.40
70407;BME280;57821;52.202;0.154;2023-05-22T09:37:01;102126.66;;;15.77;65.31
70407;BME280;57821;52.202;0.154;2023-05-22T09:39:37;102130.97;;;15.87;64.58
70407;BME280;57821;52.202;0.154;2023-05-22T09:42:04;102123.03;;;16.07;64.01
70407;BME280;57821;52.202;0.154;2023-05-22T09:44:31;102128.22;;;16.17;63.54
70407;BME280;57821;52.202;0.154;2023-05-22T09:46:57;102115.97;;;16.22;62.89
70407;BME280;57821;52.202;0.154;2023-05-22T09:49:24;102115.09;;;16.25;63.08
70407;BME280;57821;52.202;0.154;2023-05-22T09:51:53;102115.94;;;16.28;62.47
70407;BME280;57821;52.202;0.154;2023-05-22T09:54:21;102116.81;;;16.30;61.58
70407;BME280;57821;52.202;0.154;2023-05-22T09:56:52;102112.47;;;16.29;61.85
70407;BME280;57821;52.202;0.154;2023-05-22T09:59:26;102112.47;;;16.26;61.59
70407;BME280;57821;52.202;0.154;2023-05-22T10:01:53;102119.47;;;16.24;61.33
70407;BME280;57821;52.202;0.154;2023-05-22T10:04:21;102119.50;;;16.18;61.51
70407;BME280;57821;52.202;0.154;2023-05-22T10:06:50;102107.31;;;16.11;61.70
70407;BME280;57821;52.202;0.154;2023-05-22T10:09:22;102116.88;;;16.15;61.60
70407;BME280;57821;52.202;0.154;2023-05-22T10:11:52;102116.91;;;16.12;61.38
70407;BME280;57821;52.202;0.154;2023-05-22T10:14:20;102109.06;;;16.09;61.60
70407;BME280;57821;52.202;0.154;2023-05-22T10:16:47;102119.53;;;16.12;61.99
70407;BME280;57821;52.202;0.154;2023-05-22T10:19:15;102120.38;;;16.17;61.63
70407;BME280;57821;52.202;0.154;2023-05-22T10:21:44;102120.38;;;16.16;61.20
70407;BME280;57821;52.202;0.154;2023-05-22T10:24:12;102126.47;;;16.16;61.56
70407;BME280;57821;52.202;0.154;2023-05-22T10:26:39;102128.22;;;16.17;61.38
70407;BME280;57821;52.202;0.154;2023-05-22T10:29:13;102125.59;;;16.14;61.16
70407;BME280;57821;52.202;0.154;2023-05-22T10:31:46;102128.25;;;16.13;61.36
70407;BME280;57821;52.202;0.154;2023-05-22T10:34:39;102128.25;;;16.10;61.30
70407;BME280;57821;52.202;0.154;2023-05-22T10:40:08;102131.75;;;16.10;61.82
70407;BME280;57821;52.202;0.154;2023-05-22T10:42:36;102129.13;;;16.09;61.65
70407;BME280;57821;52.202;0.154;2023-05-22T10:45:06;102114.28;;;16.09;61.48
70407;BME280;57821;52.202;0.154;2023-05-22T10:47:33;102124.69;;;16.20;61.92
70407;BME280;57821;52.202;0.154;2023-05-22T10:50:08;102135.16;;;16.21;61.68
70407;BME280;57821;52.202;0.154;2023-05-22T10:52:36;102132.53;;;16.26;61.72
70407;BME280;57821;52.202;0.154;2023-05-22T10:55:08;102141.25;;;16.29;61.79
70407;BME280;57821;52.202;0.154;2023-05-22T10:57:38;102149.06;;;16.35;62.22
70407;BME280;57821;52.202;0.154;2023-05-22T11:00:07;102125.50;;;16.34;62.04
70407;BME280;57821;52.202;0.154;2023-05-22T11:02:43;102135.94;;;16.41;62.41
70407;BME280;57821;52.202;0.154;2023-05-22T11:07:44;102145.44;;;16.62;61.51
70407;BME280;57821;52.202;0.154;2023-05-22T11:10:10;102145.38;;;16.67;61.06
70407;BME280;57821;52.202;0.154;2023-05-22T11:12:37;102149.75;;;16.71;61.33
70407;BME280;57821;52.202;0.154;2023-05-22T11:15:06;102129.69;;;16.67;60.56
70407;BME280;57821;52.202;0.154;2023-05-22T11:17:38;102145.34;;;16.73;60.83
70407;BME280;57821;52.202;0.154;2023-05-22T11:20:12;102137.53;;;16.70;61.43
70407;BME280;57821;52.202;0.154;2023-05-22T11:22:43;102143.59;;;16.75;61.08
70407;BME280;57821;52.202;0.154;2023-05-22T11:25:16;102135.75;;;16.76;61.11
70407;BME280;57821;52.202;0.154;2023-05-22T11:27:43;102140.94;;;16.81;61.33
70407;BME280;57821;52.202;0.154;2023-05-22T11:30:10;102143.50;;;16.89;61.79
70407;BME280;57821;52.202;0.154;2023-05-22T11:32:38;102148.66;;;16.96;61.60
70407;BME280;57821;52.202;0.154;2023-05-22T11:35:06;102138.13;;;17.02;61.28
70407;BME280;57821;52.202;0.154;2023-05-22T11:37:39;102149.41;;;17.13;61.59
70407;BME280;57821;52.202;0.154;2023-05-22T11:40:07;102144.13;;;17.18;61.14
70407;BME280;57821;52.202;0.154;2023-05-22T11:42:35;102148.41;;;17.27;61.29
70407;BME280;57821;52.202;0.154;2023-05-22T11:45:03;102137.88;;;17.34;60.83
70407;BME280;57821;52.202;0.154;2023-05-22T11:47:30;102150.00;;;17.43;60.45
70407;BME280;57821;52.202;0.154;2023-05-22T11:49:57;102149.06;;;17.50;59.98
70407;BME280;57821;52.202;0.154;2023-05-22T11:52:23;102138.44;;;17.59;59.72
70407;BME280;57821;52.202;0.154;2023-05-22T11:54:51;102144.53;;;17.67;60.49
70407;BME280;57821;52.202;0.154;2023-05-22T11:57:18;102149.69;;;17.76;59.71
70407;BME280;57821;52.202;0.154;2023-05-22T11:59:45;102153.19;;;17.75;58.83
70407;BME280;57821;52.202;0.154;2023-05-22T12:02:12;102154.13;;;17.70;59.00
70407;BME280;57821;52.202;0.154;2023-05-22T12:04:39;102153.28;;;17.68;59.37
70407;BME280;57821;52.202;0.154;2023-05-22T12:07:06;102155.91;;;17.66;59.43
70407;BME280;57821;52.202;0.154;2023-05-22T12:09:34;102151.53;;;17.65;58.91
70407;BME280;57821;52.202;0.154;2023-05-22T12:12:03;102146.28;;;17.67;59.35
70407;BME280;57821;52.202;0.154;2023-05-22T12:14:30;102148.00;;;17.69;59.02
70407;BME280;57821;52.202;0.154;2023-05-22T12:16:57;102150.59;;;17.74;58.93
70407;BME280;57821;52.202;0.154;2023-05-22T12:19:25;102154.00;;;17.82;58.62
70407;BME280;57821;52.202;0.154;2023-05-22T12:21:52;102159.13;;;17.89;58.94
70407;BME280;57821;52.202;0.154;2023-05-22T12:24:19;102157.28;;;17.99;58.62
70407;BME280;57821;52.202;0.154;2023-05-22T12:26:52;102141.41;;;18.08;58.11
70407;BME280;57821;52.202;0.154;2023-05-22T12:29:22;102136.81;;;18.24;57.58
70407;BME280;57821;52.202;0.154;2023-05-22T12:31:49;102134.88;;;18.38;57.82
70407;BME280;57821;52.202;0.154;2023-05-22T12:34:17;102123.22;;;18.59;57.07
70407;BME280;57821;52.202;0.154;2023-05-22T12:36:45;102128.09;;;18.81;56.36
70407;BME280;57821;52.202;0.154;2023-05-22T12:39:16;102127.72;;;19.06;56.39
70407;BME280;57821;52.202;0.154;2023-05-22T12:41:45;102120.16;;;19.37;56.02
70407;BME280;57821;52.202;0.154;2023-05-22T12:44:15;102124.13;;;19.60;53.40
70407;BME280;57821;52.202;0.154;2023-05-22T12:46:42;102120.25;;;19.78;53.06
70407;BME280;57821;52.202;0.154;2023-05-22T12:49:09;102113.00;;;19.89;51.00
70407;BME280;57821;52.202;0.154;2023-05-22T12:51:36;102123.97;;;20.09;50.32
70407;BME280;57821;52.202;0.154;2023-05-22T12:54:02;102121.81;;;20.28;50.81
70407;BME280;57821;52.202;0.154;2023-05-22T12:56:30;102123.78;;;20.59;49.53
70407;BME280;57821;52.202;0.154;2023-05-22T12:58:57;102123.22;;;20.81;48.97
70407;BME280;57821;52.202;0.154;2023-05-22T13:01:24;102124.47;;;21.02;48.18
70407;BME280;57821;52.202;0.154;2023-05-22T13:03:51;102127.69;;;21.13;47.37
70407;BME280;57821;52.202;0.154;2023-05-22T13:06:18;102125.88;;;21.15;46.37
70407;BME280;57821;52.202;0.154;2023-05-22T13:08:45;102121.44;;;21.19;46.49
70407;BME280;57821;52.202;0.154;2023-05-22T13:11:12;102119.56;;;21.22;45.93
70407;BME280;57821;52.202;0.154;2023-05-22T13:13:38;102113.22;;;21.29;45.91
70407;BME280;57821;52.202;0.154;2023-05-22T13:16:05;102113.78;;;21.41;45.94